首页
METAR-TAF:

METAR-TAF

机场 :

Teslin, 育康省, 加拿大

纬度: 60-10N, 经度: 132-44W, 海拔: 711米

当前天气观测

该预报发布于5小时和16分钟前的00:00 UTC
风速15节,风向东南,有时为21节阵风
温度 0°C
湿度 80%
气压 1012 hPa
能見度: 16.1公里
阴天层高于5000英尺
小雪

METAR: CYZW 190000Z 13015G21KT 10SM -SN OVC050 00/M03 A2987 RMK SC8 LAST STFD OBS/NXT 191600Z SLP161

时间: 22:16 (05:16 UTC)

预报

该预报发布于11小时和34分钟前的17:42 UTC
预报有效从18日的 18点(UTC)到 18日的 24点(UTC)
风速6节,风向北转东北
能見度: 10公里
阴天层高于16000英尺
短暂存在
从 18日的 18点(UTC)到 18日的 21点(UTC)
能見度: 8.0公里
多云层高于4000英尺
小雪
成为
从 18日的 19点(UTC)到 18日的 21点(UTC)
风速10节,风向东转东南
从 18日的 2100点(UTC)
风速10节,风向东转东南
能見度: 9.7公里
阴天层高于4000英尺
小雪
短暂存在
从 18日的 21点(UTC)到 18日的 24点(UTC)
能見度: 3.2公里
阴天层高于2000英尺
小雪

TAF: CYZW 181742Z 1818/1824 03006KT P6SM OVC160 TEMPO 1818/1821 5SM -SN BKN040 BECMG 1819/1821 12010KT FM182100 12010KT 6SM -SN OVC040 TEMPO 1821/1824 2SM -SN OVC020 RMK NXT FCST WILL BE ISSUED AT 191745Z

超过4000个机场的气象观测和天气预报(METAR&TAF报告)。

可查询的气象台以黄色和红色小点在地图上表示。

将鼠标移到小点上方,可查看气象台名称。

然后点击查看天气观测和预报。

如需切换地图:点击带黑十字的绿色按钮放大地图;点击带横线的绿色按钮缩小地图;或者点击绿色箭头查看邻近地区的地图。


METAR-TAF: